createdAt,value
2023-03-06T00:00:45.921Z,31.47
2023-03-06T00:04:45.910Z,30.02
2023-03-06T00:08:45.850Z,31.51
2023-03-06T00:12:45.815Z,28.11
2023-03-06T00:16:45.807Z,31.90
2023-03-06T00:20:45.752Z,31.58
2023-03-06T00:24:45.722Z,29.07
2023-03-06T00:28:45.679Z,30.84
2023-03-06T00:32:45.736Z,32.02
2023-03-06T00:36:45.663Z,28.92
2023-03-06T00:40:45.643Z,28.99
2023-03-06T00:44:45.625Z,30.35
2023-03-06T00:48:45.575Z,30.72
2023-03-06T00:52:45.544Z,31.91
2023-03-06T00:56:45.510Z,30.29
2023-03-06T01:00:45.491Z,32.95
2023-03-06T01:04:45.436Z,29.63
2023-03-06T01:08:45.386Z,33.21
2023-03-06T01:12:45.453Z,32.83
2023-03-06T01:16:45.593Z,30.39
2023-03-06T01:20:45.436Z,31.69
2023-03-06T01:24:45.349Z,29.63
2023-03-06T01:28:45.332Z,31.02
2023-03-06T01:32:45.299Z,28.93
2023-03-06T01:36:45.273Z,32.83
2023-03-06T01:40:45.240Z,29.30
2023-03-06T01:44:45.180Z,31.04
2023-03-06T01:48:45.148Z,31.75
2023-03-06T01:52:45.156Z,27.92
2023-03-06T01:56:45.103Z,33.75
2023-03-06T02:00:45.105Z,33.38
2023-03-06T02:04:45.022Z,34.91
2023-03-06T02:08:44.979Z,31.66
2023-03-06T02:12:44.949Z,31.95
2023-03-06T02:16:44.970Z,35.79
2023-03-06T02:20:44.939Z,32.79
2023-03-06T02:24:44.851Z,33.18
2023-03-06T02:28:44.829Z,31.29
2023-03-06T02:32:44.811Z,30.99
2023-03-06T02:36:44.763Z,32.57
2023-03-06T02:40:44.748Z,30.07
2023-03-06T02:44:44.715Z,31.15
2023-03-06T02:48:44.685Z,30.82
2023-03-06T02:52:44.608Z,30.60
2023-03-06T02:56:44.559Z,30.81
2023-03-06T03:00:44.552Z,27.34
2023-03-06T03:04:44.517Z,31.36
2023-03-06T03:08:44.539Z,29.02
2023-03-06T03:12:44.579Z,31.24
2023-03-06T03:16:44.825Z,31.76
2023-03-06T03:20:44.543Z,30.46
2023-03-06T03:24:44.433Z,29.29
2023-03-06T03:28:44.378Z,27.80
2023-03-06T03:32:44.362Z,30.83
2023-03-06T03:36:44.285Z,32.36
2023-03-06T03:40:44.267Z,31.27
2023-03-06T03:44:44.269Z,29.44
2023-03-06T03:48:44.191Z,27.90
2023-03-06T03:52:44.326Z,29.31
2023-03-06T03:56:44.537Z,28.81
2023-03-06T04:00:44.622Z,28.69
2023-03-06T04:04:44.832Z,28.89
2023-03-06T04:08:44.892Z,28.97
2023-03-06T04:12:45.005Z,28.16
2023-03-06T04:16:45.094Z,29.76
2023-03-06T04:20:45.221Z,30.13
2023-03-06T04:24:45.347Z,26.29
2023-03-06T04:28:45.522Z,32.17
2023-03-06T04:32:45.712Z,31.20
2023-03-06T04:36:45.679Z,30.23
2023-03-06T04:40:45.629Z,29.56
2023-03-06T04:44:45.633Z,30.07
2023-03-06T04:48:45.589Z,27.81
2023-03-06T04:52:45.508Z,31.73
2023-03-06T04:56:45.499Z,28.74
2023-03-06T05:00:45.494Z,30.41
2023-03-06T05:04:45.420Z,27.44
2023-03-06T05:08:45.392Z,29.48
2023-03-06T05:12:45.337Z,27.84
2023-03-06T05:16:45.423Z,26.26
2023-03-06T05:20:45.257Z,27.31
2023-03-06T05:24:45.249Z,25.00
2023-03-06T05:28:45.194Z,28.91
2023-03-06T05:32:45.248Z,30.91
2023-03-06T05:36:45.148Z,25.97
2023-03-06T05:40:45.100Z,29.29
2023-03-06T05:44:45.085Z,32.17
2023-03-06T05:48:46.773Z,34.91
2023-03-06T05:52:44.968Z,39.05
2023-03-06T05:56:44.954Z,47.75
2023-03-06T06:00:45.131Z,50.40
2023-03-06T06:04:45.112Z,52.75
2023-03-06T06:08:45.061Z,55.38
2023-03-06T06:12:45.018Z,51.90
2023-03-06T06:16:45.003Z,52.73
2023-03-06T06:20:44.956Z,55.48
2023-03-06T06:24:44.915Z,57.04
2023-03-06T06:28:44.868Z,59.56
2023-03-06T06:32:44.830Z,60.07
2023-03-06T06:36:44.782Z,58.89
2023-03-06T06:40:53.978Z,72.15
2023-03-06T06:44:45.791Z,77.83
2023-03-06T06:48:44.922Z,95.20
2023-03-06T06:52:44.903Z,108.20
2023-03-06T06:56:45.417Z,307.47
2023-03-06T07:00:45.031Z,243.58
2023-03-06T07:05:02.036Z,229.49
2023-03-06T07:08:46.435Z,228.63
2023-03-06T07:12:45.026Z,231.32
2023-03-06T07:16:44.957Z,230.00
2023-03-06T07:20:45.122Z,247.10
2023-03-06T07:24:45.077Z,244.21
2023-03-06T07:28:52.445Z,242.92
2023-03-06T07:32:46.177Z,241.33
2023-03-06T07:36:45.414Z,243.63
2023-03-06T07:40:45.574Z,246.37
2023-03-06T07:44:45.949Z,246.20
2023-03-06T07:48:45.882Z,245.75
2023-03-06T07:52:46.437Z,239.56
2023-03-06T07:56:46.424Z,239.34
2023-03-06T08:00:46.387Z,235.82
2023-03-06T08:04:46.558Z,232.85
2023-03-06T08:08:46.701Z,230.39
2023-03-06T08:12:46.932Z,227.39
2023-03-06T08:16:47.033Z,225.33
2023-03-06T08:20:47.156Z,223.62
2023-03-06T08:24:47.462Z,221.47
2023-03-06T08:28:47.455Z,220.87
2023-03-06T08:32:47.580Z,219.44
2023-03-06T08:36:47.738Z,217.59
2023-03-06T08:40:47.962Z,216.73
2023-03-06T08:44:48.447Z,213.60
2023-03-06T08:48:48.481Z,219.07
2023-03-06T08:52:48.292Z,225.43
2023-03-06T08:56:48.341Z,231.23
2023-03-06T09:00:48.541Z,234.58
2023-03-06T09:04:48.374Z,237.02
2023-03-06T09:08:48.336Z,243.76
2023-03-06T09:12:51.416Z,247.48
2023-03-06T09:16:48.332Z,249.97
2023-03-06T09:20:48.473Z,248.56
2023-03-06T09:24:48.197Z,247.85
2023-03-06T09:28:48.200Z,249.78
2023-03-06T09:32:48.175Z,250.00
2023-03-06T09:36:56.735Z,240.63
2023-03-06T09:40:49.385Z,242.39
2023-03-06T09:44:48.468Z,247.11
2023-03-06T09:48:48.473Z,250.67
2023-03-06T09:52:48.991Z,248.84
2023-03-06T09:56:49.020Z,249.42
2023-03-06T10:00:49.019Z,248.04
2023-03-06T10:04:48.980Z,247.38
2023-03-06T10:08:48.990Z,245.32
2023-03-06T10:12:48.875Z,242.87
2023-03-06T10:16:48.858Z,238.34
2023-03-06T10:20:48.981Z,230.71
2023-03-06T10:24:48.788Z,228.48
2023-03-06T10:28:49.035Z,222.73
2023-03-06T10:32:49.544Z,219.98
2023-03-06T10:36:48.998Z,215.32
2023-03-06T10:40:48.995Z,212.14
2023-03-06T10:44:49.024Z,201.15
2023-03-06T10:48:49.013Z,147.45
2023-03-06T10:52:48.550Z,141.59
2023-03-06T10:56:48.501Z,159.19
2023-03-06T11:00:48.540Z,155.59
2023-03-06T11:04:48.590Z,154.97
2023-03-06T11:08:48.420Z,153.71
2023-03-06T11:12:48.396Z,164.67
2023-03-06T11:16:48.622Z,158.90
2023-03-06T11:20:52.420Z,162.27
2023-03-06T11:24:48.575Z,161.14
2023-03-06T11:28:48.615Z,165.46
2023-03-06T11:32:48.512Z,167.32
2023-03-06T11:36:48.514Z,165.44
2023-03-06T11:40:48.412Z,170.33
2023-03-06T11:44:48.496Z,170.58
2023-03-06T11:48:48.395Z,172.02
2023-03-06T11:52:48.495Z,174.14
2023-03-06T11:56:48.617Z,176.63
2023-03-06T12:00:48.670Z,177.69
2023-03-06T12:04:48.791Z,181.86
2023-03-06T12:08:48.836Z,181.20
2023-03-06T12:12:48.879Z,182.54
2023-03-06T12:16:49.072Z,182.12
2023-03-06T12:20:48.949Z,183.90
2023-03-06T12:24:48.964Z,187.00
2023-03-06T12:28:48.932Z,185.65
2023-03-06T12:32:49.105Z,189.26
2023-03-06T12:36:49.047Z,182.43
2023-03-06T12:40:49.032Z,178.99
2023-03-06T12:44:48.950Z,172.91
2023-03-06T12:48:48.937Z,171.01
2023-03-06T12:52:49.233Z,167.02
2023-03-06T12:56:49.105Z,164.24
2023-03-06T13:00:52.568Z,157.99
2023-03-06T13:04:50.154Z,156.26
2023-03-06T13:08:49.558Z,153.36
2023-03-06T13:12:49.085Z,147.28
2023-03-06T13:16:49.126Z,145.99
2023-03-06T13:20:49.087Z,142.99
2023-03-06T13:24:50.815Z,137.67
2023-03-06T13:28:49.538Z,134.91
2023-03-06T13:32:49.188Z,132.79
2023-03-06T13:36:49.072Z,129.36
2023-03-06T13:40:49.069Z,130.52
2023-03-06T13:44:49.045Z,128.94
2023-03-06T13:48:49.674Z,124.80
2023-03-06T13:52:48.955Z,123.62
2023-03-06T13:56:48.929Z,122.36
2023-03-06T14:00:48.907Z,119.41
2023-03-06T14:04:48.842Z,117.62
2023-03-06T14:08:48.808Z,114.51
2023-03-06T14:12:48.785Z,110.17
2023-03-06T14:16:50.462Z,110.36
2023-03-06T14:20:48.685Z,107.65
2023-03-06T14:24:48.791Z,105.18
2023-03-06T14:28:48.871Z,103.91
2023-03-06T14:32:48.967Z,101.81
2023-03-06T14:36:49.144Z,99.46
2023-03-06T14:40:49.246Z,99.17
2023-03-06T14:44:49.302Z,94.88
2023-03-06T14:48:49.422Z,96.37
2023-03-06T14:52:49.475Z,90.71
2023-03-06T14:56:49.569Z,88.42
2023-03-06T15:00:49.693Z,87.15
2023-03-06T15:04:50.115Z,84.87
2023-03-06T15:08:49.736Z,82.13
2023-03-06T15:12:49.760Z,81.57
2023-03-06T15:16:50.210Z,79.62
2023-03-06T15:20:49.849Z,79.29
2023-03-06T15:24:50.085Z,77.00
2023-03-06T15:28:52.191Z,75.73
2023-03-06T15:32:49.926Z,74.49
2023-03-06T15:36:49.890Z,75.00
2023-03-06T15:40:49.881Z,71.82
2023-03-06T15:44:49.848Z,69.33
2023-03-06T15:48:49.803Z,69.78
2023-03-06T15:52:49.782Z,69.44
2023-03-06T15:56:49.716Z,66.57
2023-03-06T16:00:49.731Z,65.47
2023-03-06T16:04:49.677Z,65.35
2023-03-06T16:08:49.604Z,63.84
2023-03-06T16:12:49.610Z,63.75
2023-03-06T16:16:49.583Z,60.83
2023-03-06T16:20:49.713Z,56.75
2023-03-06T16:24:49.689Z,57.33
2023-03-06T16:28:49.636Z,58.66
2023-03-06T16:32:49.651Z,58.37
2023-03-06T16:36:49.557Z,56.21
2023-03-06T16:40:49.505Z,55.01
2023-03-06T16:44:49.497Z,50.67
2023-03-06T16:48:49.500Z,51.65
2023-03-06T16:52:49.443Z,49.06
2023-03-06T16:56:49.387Z,50.28
2023-03-06T17:00:49.685Z,51.10
2023-03-06T17:04:49.324Z,48.03
2023-03-06T17:08:49.290Z,47.43
2023-03-06T17:12:49.261Z,47.44
2023-03-06T17:16:49.224Z,46.88
2023-03-06T17:20:49.190Z,45.65
2023-03-06T17:24:49.185Z,45.25
2023-03-06T17:28:49.095Z,44.48
2023-03-06T17:32:49.045Z,43.14
2023-03-06T17:36:49.025Z,40.72
2023-03-06T17:40:49.007Z,42.63
2023-03-06T17:44:49.023Z,41.44
2023-03-06T17:48:49.729Z,40.89
2023-03-06T17:52:49.355Z,38.59
2023-03-06T17:56:49.501Z,37.57
2023-03-06T18:00:50.659Z,37.63
2023-03-06T18:04:49.874Z,34.33
2023-03-06T18:08:52.733Z,37.22
2023-03-06T18:12:50.028Z,36.50
2023-03-06T18:16:49.927Z,34.16
2023-03-06T18:20:49.906Z,32.48
2023-03-06T18:24:49.852Z,30.14
2023-03-06T18:28:49.819Z,31.26
2023-03-06T18:32:49.808Z,29.37
2023-03-06T18:36:49.759Z,28.88
2023-03-06T18:40:49.712Z,27.88
2023-03-06T18:44:49.728Z,27.19
2023-03-06T18:48:49.649Z,27.64
2023-03-06T18:52:49.625Z,27.19
2023-03-06T18:56:49.581Z,28.71
2023-03-06T19:00:49.823Z,25.21
2023-03-06T19:04:49.967Z,26.59
2023-03-06T19:08:50.175Z,26.40
2023-03-06T19:12:50.393Z,26.48
2023-03-06T19:16:50.633Z,29.09
2023-03-06T19:20:50.577Z,25.35
2023-03-06T19:24:50.522Z,25.49
2023-03-06T19:28:50.482Z,27.69
2023-03-06T19:32:50.481Z,26.80
2023-03-06T19:36:50.451Z,27.43
2023-03-06T19:40:50.394Z,26.69
2023-03-06T19:44:50.359Z,28.13
2023-03-06T19:48:50.324Z,26.63
2023-03-06T19:52:50.271Z,26.06
2023-03-06T19:56:50.345Z,26.76
2023-03-06T20:00:50.316Z,26.60
2023-03-06T20:04:50.326Z,27.19
2023-03-06T20:08:50.241Z,26.82
2023-03-06T20:12:50.713Z,27.28
2023-03-06T20:16:50.160Z,31.40
2023-03-06T20:20:50.123Z,27.36
2023-03-06T20:24:50.054Z,30.74
2023-03-06T20:28:50.025Z,29.44
2023-03-06T20:32:50.010Z,29.53
2023-03-06T20:36:50.123Z,28.10
2023-03-06T20:40:50.114Z,26.89
2023-03-06T20:44:50.015Z,28.25
2023-03-06T20:48:50.014Z,28.51
2023-03-06T20:52:50.107Z,27.33
2023-03-06T20:56:49.981Z,28.79
2023-03-06T21:00:49.908Z,27.48
2023-03-06T21:04:49.876Z,27.55
2023-03-06T21:08:49.860Z,28.69
2023-03-06T21:12:49.805Z,25.84
2023-03-06T21:16:49.814Z,29.40
2023-03-06T21:20:50.047Z,26.42
2023-03-06T21:24:50.169Z,29.46
2023-03-06T21:28:50.283Z,26.65
2023-03-06T21:32:50.421Z,28.12
2023-03-06T21:36:50.530Z,27.20
2023-03-06T21:40:50.650Z,27.21
2023-03-06T21:44:50.656Z,25.34
2023-03-06T21:48:50.714Z,28.00
2023-03-06T21:52:50.849Z,26.54
2023-03-06T21:56:50.794Z,26.41
2023-03-06T22:00:50.872Z,27.75
2023-03-06T22:04:50.829Z,26.57
2023-03-06T22:08:50.857Z,28.38
2023-03-06T22:12:50.827Z,28.64
2023-03-06T22:16:50.887Z,26.75
2023-03-06T22:20:50.792Z,29.32
2023-03-06T22:24:50.806Z,28.86
2023-03-06T22:28:50.902Z,27.95
2023-03-06T22:32:50.790Z,27.93
2023-03-06T22:36:50.740Z,26.29
2023-03-06T22:40:50.701Z,26.84
2023-03-06T22:44:50.713Z,28.35
2023-03-06T22:48:50.681Z,26.02
2023-03-06T22:52:50.686Z,26.92
2023-03-06T22:56:50.683Z,27.78
2023-03-06T23:00:50.739Z,26.64
2023-03-06T23:04:50.751Z,26.89
2023-03-06T23:08:50.718Z,27.27
2023-03-06T23:12:50.735Z,25.68
2023-03-06T23:16:50.751Z,30.25
2023-03-06T23:20:50.752Z,27.25
2023-03-06T23:24:50.760Z,26.23
2023-03-06T23:28:50.818Z,27.57
2023-03-06T23:32:50.837Z,25.68
2023-03-06T23:36:50.865Z,27.16
2023-03-06T23:40:50.894Z,29.13
2023-03-06T23:44:50.883Z,26.58
2023-03-06T23:48:50.884Z,28.30
2023-03-06T23:52:50.903Z,26.56
2023-03-06T23:56:50.888Z,26.86
